Time;durP1;ratioP1;P1;durP2;ratioP2;P2;SDS_P1;SDS_P2;PMS_P1;PMS_P2;Temp;Humidity;BMP_temperature;BMP_pressure;BME280_temperature;BME280_humidity;BME280_pressure;Samples;Min_cycle;Max_cycle;Signal;HPM_P1;HPM_P2
2022/08/10 00:00:44;;;;;;;5.80;4.70;;;;;;;18.50;62.63;101840.50;5032500;28;20436;-74
2022/08/10 00:03:09;;;;;;;7.22;5.15;;;;;;;18.43;62.86;101837.19;5032651;28;20040;-74
2022/08/10 00:05:35;;;;;;;6.13;4.82;;;;;;;18.40;62.87;101845.28;5033802;28;20377;-74
2022/08/10 00:08:01;;;;;;;9.05;5.90;;;;;;;18.39;63.10;101843.53;5033869;28;20045;-74
2022/08/10 00:10:26;;;;;;;8.25;5.15;;;;;;;18.36;63.26;101848.94;5032644;28;20433;-74
2022/08/10 00:12:52;;;;;;;7.95;5.80;;;;;;;18.35;63.28;101844.56;5032658;28;20037;-74
2022/08/10 00:15:20;;;;;;;6.63;4.60;;;;;;;18.34;63.15;101849.91;5033546;28;20478;-74
2022/08/10 00:17:45;;;;;;;6.40;4.43;;;;;;;18.32;63.12;101849.97;5033644;28;20095;-74
2022/08/10 00:20:11;;;;;;;9.30;5.20;;;;;;;18.29;62.92;101850.03;5032524;28;20469;-74
2022/08/10 00:22:37;;;;;;;5.50;4.57;;;;;;;18.30;62.68;101841.13;5032447;28;20017;-74
2022/08/10 00:25:04;;;;;;;6.60;4.85;;;;;;;18.38;62.39;101839.09;5015871;28;20132;-74
2022/08/10 00:27:30;;;;;;;7.22;4.90;;;;;;;18.30;62.27;101843.78;5015759;28;20381;-74
2022/08/10 00:29:56;;;;;;;7.88;5.00;;;;;;;18.30;62.01;101851.78;4999489;28;20025;-74
2022/08/10 00:32:22;;;;;;;6.10;4.20;;;;;;;18.29;61.99;101841.19;5015854;28;20029;-74
2022/08/10 00:34:47;;;;;;;5.50;4.43;;;;;;;18.24;62.11;101843.13;5033448;28;20032;-74
2022/08/10 00:37:14;;;;;;;5.38;4.40;;;;;;;18.21;62.06;101839.63;5015827;28;20432;-74
2022/08/10 00:39:40;;;;;;;6.40;4.90;;;;;;;18.14;62.17;101838.06;5031904;28;20092;-74
2022/08/10 00:42:10;;;;;;;7.05;4.72;;;;;;;18.12;62.14;101844.38;5033334;28;20029;-74
2022/08/10 00:44:41;;;;;;;6.53;4.90;;;;;;;18.02;62.30;101842.88;5033650;28;20029;-74
2022/08/10 00:47:07;;;;;;;6.18;4.57;;;;;;;17.91;62.45;101840.53;5037319;28;20116;-74
2022/08/10 00:49:33;;;;;;;7.40;4.07;;;;;;;17.80;62.53;101838.19;5036282;28;20087;-74
2022/08/10 00:52:00;;;;;;;6.68;5.05;;;;;;;17.78;62.64;101833.84;5036197;28;20033;-72
2022/08/10 00:54:29;;;;;;;5.07;4.20;;;;;;;17.78;62.42;101842.69;5035976;28;20057;-73
2022/08/10 00:56:54;;;;;;;5.60;4.30;;;;;;;17.76;62.42;101844.53;5035912;28;20112;-74
2022/08/10 00:59:20;;;;;;;7.53;4.68;;;;;;;17.76;62.37;101841.00;5037220;28;20069;-74
2022/08/10 01:01:46;;;;;;;9.45;4.88;;;;;;;17.74;62.13;101843.66;5019467;28;20076;-74
2022/08/10 01:04:11;;;;;;;6.38;4.47;;;;;;;17.67;62.21;101837.66;5037331;28;20040;-74
2022/08/10 01:07:07;;;;;;;7.13;4.80;;;;;;;17.62;62.28;101844.00;5037144;28;20021;-74
2022/08/10 01:10:05;;;;;;;4.88;4.18;;;;;;;17.60;62.17;101845.84;5036976;28;20033;-74
2022/08/10 01:12:44;;;;;;;7.07;5.07;;;;;;;17.53;62.47;101842.47;5035740;28;20028;-74
2022/08/10 01:15:22;;;;;;;7.00;4.90;;;;;;;17.47;62.59;101837.31;5035694;28;20060;-74
2022/08/10 01:17:50;;;;;;;7.32;5.03;;;;;;;17.46;62.60;101839.09;5036967;28;20108;-74
2022/08/10 01:20:28;;;;;;;8.82;5.53;;;;;;;17.46;62.52;101839.09;5035587;28;20025;-74
2022/08/10 01:23:05;;;;;;;7.30;4.70;;;;;;;17.45;62.49;101848.00;5036829;28;20388;-72
2022/08/10 01:25:55;;;;;;;5.63;4.60;;;;;;;17.42;62.49;101842.75;5036753;28;20097;-74
2022/08/10 01:28:36;;;;;;;7.07;4.90;;;;;;;17.38;62.68;101840.22;5035347;28;20465;-74
2022/08/10 01:31:03;;;;;;;7.03;5.40;;;;;;;17.36;62.65;101834.97;5035542;28;20116;-74
2022/08/10 01:33:34;;;;;;;6.85;5.35;;;;;;;17.32;62.71;101830.63;5035448;28;20044;-73
2022/08/10 01:36:06;;;;;;;10.50;5.95;;;;;;;17.33;62.72;101832.38;5035285;28;20121;-74
2022/08/10 01:38:38;;;;;;;6.00;5.07;;;;;;;17.36;62.59;101829.66;5036716;28;20040;-74
2022/08/10 01:41:26;;;;;;;6.32;4.30;;;;;;;17.42;62.46;101823.28;5036629;28;20074;-74
2022/08/10 01:44:11;;;;;;;8.02;4.72;;;;;;;17.37;62.52;101825.19;5036482;28;20026;-74
2022/08/10 01:46:43;;;;;;;6.68;4.47;;;;;;;17.41;62.45;101822.41;5035056;28;20373;-74
2022/08/10 01:49:11;;;;;;;6.00;4.97;;;;;;;17.42;62.31;101821.50;5035213;28;20021;-74
2022/08/10 01:51:43;;;;;;;8.98;4.85;;;;;;;17.39;62.45;101823.34;5036277;28;20021;-74
2022/08/10 01:54:13;;;;;;;7.67;5.47;;;;;;;17.31;62.71;101820.91;5035112;28;20120;-74
2022/08/10 01:56:42;;;;;;;6.55;5.40;;;;;;;17.23;63.05;101825.56;5035680;28;20030;-74
2022/08/10 01:59:12;;;;;;;6.85;5.13;;;;;;;17.16;63.43;101821.34;5036043;28;20048;-74
2022/08/10 02:01:47;;;;;;;7.07;5.45;;;;;;;17.17;63.42;101812.44;5035992;28;20025;-74
2022/08/10 02:04:15;;;;;;;6.82;4.90;;;;;;;17.18;63.29;101812.41;5036166;28;20029;-74
2022/08/10 02:06:49;;;;;;;7.07;5.90;;;;;;;17.18;63.08;101809.75;5036059;28;20029;-73
2022/08/10 02:09:35;;;;;;;7.90;5.40;;;;;;;17.09;63.21;101811.78;5034768;28;20032;-73
2022/08/10 02:12:05;;;;;;;6.57;5.32;;;;;;;17.05;63.28;101810.97;5034628;28;20025;-74
2022/08/10 02:14:34;;;;;;;6.95;5.00;;;;;;;17.06;63.20;101806.53;5036059;28;20087;-74
2022/08/10 02:17:03;;;;;;;6.00;4.60;;;;;;;17.05;62.99;101812.78;5035959;28;20109;-74
2022/08/10 02:19:32;;;;;;;7.88;5.13;;;;;;;17.06;63.11;101814.50;5034511;28;20030;-73
2022/08/10 02:21:58;;;;;;;5.93;4.78;;;;;;;17.04;63.05;101825.19;5035779;28;20056;-74
2022/08/10 02:24:26;;;;;;;6.40;4.68;;;;;;;16.97;62.91;101819.16;5034406;28;20380;-73
2022/08/10 02:26:52;;;;;;;5.68;4.60;;;;;;;16.93;62.92;101822.78;5034572;28;20116;-74
2022/08/10 02:29:19;;;;;;;9.20;5.40;;;;;;;16.87;63.16;101828.25;5034673;28;20477;-73
2022/08/10 02:31:44;;;;;;;6.10;5.05;;;;;;;16.79;63.34;101835.53;5035591;28;20133;-74
2022/08/10 02:34:12;;;;;;;6.50;4.90;;;;;;;16.74;63.52;101834.75;5017524;28;20541;-74
2022/08/10 02:36:43;;;;;;;6.40;4.97;;;;;;;16.77;63.56;101836.50;5034013;28;20377;-73
2022/08/10 02:39:10;;;;;;;6.10;4.82;;;;;;;16.82;63.30;101832.78;5033907;28;20103;-73
2022/08/10 02:41:51;;;;;;;6.60;4.60;;;;;;;16.84;63.11;101836.31;5034321;28;20061;-74
2022/08/10 02:44:28;;;;;;;5.57;4.70;;;;;;;16.80;63.25;101839.06;5035381;28;20029;-73
2022/08/10 02:47:10;;;;;;;7.85;4.85;;;;;;;16.76;63.18;101843.59;5035808;28;20045;-74
2022/08/10 02:49:40;;;;;;;6.32;4.78;;;;;;;16.77;63.17;101839.13;5035389;28;20109;-73
2022/08/10 02:52:13;;;;;;;6.15;4.60;;;;;;;16.78;63.20;101846.19;5033880;28;20469;-73
2022/08/10 02:54:50;;;;;;;7.25;4.55;;;;;;;16.73;63.23;101841.88;5035270;28;20025;-74
2022/08/10 02:57:21;;;;;;;5.07;4.07;;;;;;;16.73;63.17;101844.50;5035093;28;20033;-73
2022/08/10 02:59:54;;;;;;;6.00;4.28;;;;;;;16.60;63.68;101840.38;5033657;28;20087;-74
2022/08/10 03:02:28;;;;;;;;;;;;;;;16.46;64.91;101835.38;5034024;28;20029;-74
2022/08/10 03:05:00;;;;;;;6.40;4.32;;;;;;;16.39;64.30;101844.38;5033967;28;19995;-74
2022/08/10 03:07:31;;;;;;;7.65;4.97;;;;;;;16.42;64.20;101841.66;5033210;28;20030;-73
2022/08/10 03:09:58;;;;;;;5.85;4.15;;;;;;;16.38;64.69;101847.94;5034463;28;20029;-73
2022/08/10 03:12:26;;;;;;;7.45;5.22;;;;;;;16.48;64.33;101840.66;5034677;28;20029;-73
2022/08/10 03:14:53;;;;;;;7.22;5.57;;;;;;;16.50;64.07;101845.00;5033185;28;20021;-74
2022/08/10 03:17:20;;;;;;;7.80;4.97;;;;;;;16.65;63.72;101845.56;5033228;28;20462;-73
2022/08/10 03:19:47;;;;;;;7.00;5.30;;;;;;;16.74;63.15;101848.03;5034736;28;20468;-73
2022/08/10 03:22:14;;;;;;;7.28;4.95;;;;;;;16.79;62.81;101850.56;5033504;28;20052;-74
2022/08/10 03:24:42;;;;;;;8.40;4.57;;;;;;;16.79;62.86;101846.13;5033125;28;20377;-74
2022/08/10 03:27:11;;;;;;;8.32;4.70;;;;;;;16.86;62.71;101846.88;5033133;28;20025;-74
2022/08/10 03:29:37;;;;;;;5.82;4.82;;;;;;;16.89;62.43;101844.16;5033162;28;20049;-74
2022/08/10 03:32:04;;;;;;;6.50;5.00;;;;;;;16.95;62.22;101844.84;5033255;28;20044;-74
2022/08/10 03:34:30;;;;;;;6.88;5.10;;;;;;;16.98;62.10;101843.91;5033150;28;20037;-73
2022/08/10 03:36:56;;;;;;;8.20;6.00;;;;;;;16.97;61.86;101840.38;5033080;28;20473;-74
2022/08/10 03:39:21;;;;;;;9.30;5.53;;;;;;;16.97;61.70;101842.16;5016270;28;20103;-74
2022/08/10 03:41:54;;;;;;;7.38;5.03;;;;;;;16.88;61.80;101840.63;5016872;28;20037;-74
2022/08/10 03:44:24;;;;;;;5.40;4.60;;;;;;;16.86;62.09;101847.75;5034315;28;20477;-74
2022/08/10 03:46:51;;;;;;;7.20;4.75;;;;;;;16.96;61.92;101851.06;5032980;28;20104;-74
2022/08/10 03:49:19;;;;;;;9.27;5.95;;;;;;;17.04;61.82;101848.22;5032820;28;20029;-75
2022/08/10 03:51:48;;;;;;;9.23;5.38;;;;;;;17.10;61.55;101853.34;5032725;28;20049;-75
2022/08/10 03:54:15;;;;;;;8.35;4.97;;;;;;;17.17;61.41;101841.66;5033951;28;20037;-74
2022/08/10 03:56:42;;;;;;;6.78;4.90;;;;;;;17.23;61.37;101842.38;5032615;28;20029;-74
2022/08/10 03:59:10;;;;;;;8.02;5.38;;;;;;;17.32;61.03;101845.72;5016171;28;20087;-74
2022/08/10 04:01:36;;;;;;;7.55;5.30;;;;;;;17.37;61.11;101849.09;5032677;28;20104;-73
2022/08/10 04:04:02;;;;;;;8.68;5.20;;;;;;;17.39;60.80;101864.06;5033626;28;20099;-74
2022/08/10 04:06:27;;;;;;;6.70;5.20;;;;;;;17.36;61.10;101852.69;5032463;28;20120;-74
2022/08/10 04:08:53;;;;;;;8.15;4.97;;;;;;;17.41;61.02;101851.63;5032430;28;20033;-74
2022/08/10 04:11:19;;;;;;;7.43;5.43;;;;;;;17.51;60.68;101854.03;5033909;28;20122;-75
2022/08/10 04:13:44;;;;;;;6.85;4.78;;;;;;;17.60;60.50;101859.13;5033767;28;20520;-74
2022/08/10 04:16:09;;;;;;;9.73;4.60;;;;;;;17.70;60.34;101866.78;5015726;28;20026;-73
2022/08/10 04:18:35;;;;;;;8.50;5.47;;;;;;;17.73;60.05;101864.03;5033739;28;20128;-74
2022/08/10 04:21:10;;;;;;;8.27;4.45;;;;;;;17.84;60.09;101865.56;5032108;28;20378;-75
2022/08/10 04:23:39;;;;;;;5.72;3.97;;;;;;;17.95;59.84;101869.69;5032189;28;20056;-74
2022/08/10 04:26:05;;;;;;;6.63;4.68;;;;;;;18.14;59.39;101861.13;5016434;28;20029;-74
2022/08/10 04:28:31;;;;;;;6.65;5.03;;;;;;;18.27;59.11;101870.47;5015897;28;20044;-75
2022/08/10 04:30:58;;;;;;;5.82;4.68;;;;;;;18.30;59.28;101873.06;5033516;28;20022;-74
2022/08/10 04:33:25;;;;;;;7.80;5.70;;;;;;;18.46;59.02;101874.34;5033425;28;20049;-75
2022/08/10 04:35:52;;;;;;;5.72;4.45;;;;;;;18.56;58.84;101866.09;5033404;28;20029;-75
2022/08/10 04:38:19;;;;;;;6.07;4.80;;;;;;;18.65;58.68;101868.44;5033226;28;20030;-75
2022/08/10 04:40:45;;;;;;;6.15;4.72;;;;;;;18.73;58.79;101871.78;5032442;28;20033;-75
2022/08/10 04:43:12;;;;;;;7.72;5.65;;;;;;;18.80;58.92;101875.13;5033512;28;20024;-74
2022/08/10 04:45:38;;;;;;;7.80;5.95;;;;;;;18.84;59.07;101876.75;5033529;28;20104;-75
2022/08/10 04:48:03;;;;;;;7.90;4.95;;;;;;;18.89;59.03;101878.34;5033712;28;20034;-74
2022/08/10 04:50:29;;;;;;;8.30;5.47;;;;;;;19.01;59.00;101876.19;5033405;28;20041;-74
2022/08/10 04:52:54;;;;;;;8.98;5.28;;;;;;;19.16;58.60;101875.69;5015662;28;20025;-75
2022/08/10 04:55:20;;;;;;;8.55;5.32;;;;;;;19.34;58.28;101871.50;5033239;28;20034;-75
2022/08/10 04:57:45;;;;;;;7.50;5.18;;;;;;;19.53;57.73;101877.09;5032170;28;20488;-75
2022/08/10 05:00:11;;;;;;;7.18;5.32;;;;;;;19.70;57.44;101874.72;5033256;28;20040;-75
2022/08/10 05:02:37;;;;;;;7.60;4.43;;;;;;;19.82;57.32;101874.25;5015795;28;20064;-75
2022/08/10 05:05:02;;;;;;;8.65;4.40;;;;;;;19.90;56.91;101877.50;5033172;28;20045;-75
2022/08/10 05:07:28;;;;;;;7.95;4.85;;;;;;;19.99;57.17;101876.31;5033183;28;20049;-74
2022/08/10 05:09:54;;;;;;;11.00;5.60;;;;;;;20.07;57.12;101874.25;5015608;28;20041;-74
2022/08/10 05:12:19;;;;;;;9.57;5.82;;;;;;;20.11;57.51;101878.53;5032160;28;20028;-74
2022/08/10 05:14:45;;;;;;;7.57;5.45;;;;;;;20.11;57.78;101875.00;5032983;28;20021;-74
2022/08/10 05:17:10;;;;;;;11.15;5.40;;;;;;;20.10;58.33;101870.56;5015213;28;20041;-74
2022/08/10 05:19:37;;;;;;;7.15;4.97;;;;;;;20.06;58.61;101875.16;5031927;28;20038;-74
2022/08/10 05:22:03;;;;;;;6.53;4.32;;;;;;;20.04;59.32;101881.50;5015242;28;20030;-74
2022/08/10 05:24:29;;;;;;;7.60;4.38;;;;;;;20.02;59.88;101875.31;5031765;28;20031;-74
2022/08/10 05:26:54;;;;;;;7.07;4.60;;;;;;;20.10;60.06;101876.78;5033052;28;20116;-75
2022/08/10 05:29:20;;;;;;;6.78;4.20;;;;;;;20.19;60.00;101872.91;5033052;28;20100;-74
2022/08/10 05:31:46;;;;;;;8.93;4.50;;;;;;;20.32;59.78;101878.63;5034276;28;20408;-73
2022/08/10 05:34:11;;;;;;;6.88;4.70;;;;;;;20.34;60.24;101885.63;5035430;28;20041;-74
2022/08/10 05:36:37;;;;;;;10.38;5.40;;;;;;;20.40;60.60;101888.09;5035342;28;20037;-74
2022/08/10 05:39:03;;;;;;;7.25;4.72;;;;;;;20.46;60.46;101881.63;5036188;28;20049;-74
2022/08/10 05:41:30;;;;;;;6.72;4.43;;;;;;;20.58;60.26;101890.97;5036513;28;20025;-73
2022/08/10 05:43:56;;;;;;;5.15;3.72;;;;;;;20.52;60.44;101888.56;5036542;28;20033;-73
2022/08/10 05:46:22;;;;;;;5.68;3.42;;;;;;;20.70;59.72;101889.63;5034980;28;20021;-73
2022/08/10 05:48:48;;;;;;;6.32;4.65;;;;;;;20.32;61.99;101890.19;5035102;28;20033;-73
2022/08/10 05:51:14;;;;;;;6.07;3.78;;;;;;;20.55;60.85;101886.66;5018668;28;20033;-73
2022/08/10 05:53:40;;;;;;;5.95;4.20;;;;;;;20.50;60.69;101893.94;5036335;28;20025;-73
2022/08/10 05:56:07;;;;;;;5.63;4.13;;;;;;;20.58;60.72;101885.66;5018447;28;20029;-73
2022/08/10 05:58:34;;;;;;;6.00;4.55;;;;;;;20.58;61.47;101885.66;5034975;28;20037;-73
2022/08/10 06:01:02;;;;;;;6.45;3.90;;;;;;;20.54;61.55;101889.38;5018284;28;20052;-73
2022/08/10 06:03:34;;;;;;;6.70;3.90;;;;;;;20.60;61.42;101884.66;5034779;28;20036;-73
2022/08/10 06:06:03;;;;;;;13.35;4.20;;;;;;;20.58;61.25;101883.84;5034932;28;20022;-73
2022/08/10 06:08:32;;;;;;;8.13;3.50;;;;;;;20.81;60.70;101882.06;5035829;28;20087;-74
2022/08/10 06:11:01;;;;;;;5.97;3.63;;;;;;;21.04;60.15;101884.66;5035748;28;20060;-72
2022/08/10 06:16:14;;;;;;;4.95;3.45;;;;;;;20.91;60.54;101883.44;5035947;28;20132;-73
2022/08/10 06:18:42;;;;;;;7.53;3.05;;;;;;;20.97;60.10;101885.84;5035431;28;20036;-73
2022/08/10 06:21:08;;;;;;;3.92;2.50;;;;;;;21.04;59.69;101883.78;5034454;28;20033;-72
2022/08/10 06:23:35;;;;;;;4.93;2.42;;;;;;;21.48;58.27;101881.06;5035490;28;20031;-74
2022/08/10 06:26:02;;;;;;;5.10;2.20;;;;;;;21.69;57.46;101879.25;5034266;28;20029;-73
2022/08/10 06:28:31;;;;;;;4.03;2.05;;;;;;;21.87;57.02;101875.75;5034363;28;20491;-72
2022/08/10 06:30:59;;;;;;;3.55;2.33;;;;;;;22.04;56.59;101880.31;5034150;28;20041;-73
2022/08/10 06:33:26;;;;;;;3.63;2.25;;;;;;;21.97;56.93;101876.19;5017842;28;20032;-73
2022/08/10 06:35:55;;;;;;;3.63;2.50;;;;;;;22.18;56.36;101880.56;5035224;28;20036;-72
2022/08/10 06:38:23;;;;;;;4.82;2.20;;;;;;;22.15;56.68;101880.75;5033867;28;20375;-73
2022/08/10 06:40:53;;;;;;;2.95;2.08;;;;;;;22.09;56.54;101876.50;5035447;28;20476;-72
2022/08/10 06:43:22;;;;;;;3.75;2.38;;;;;;;22.28;56.18;101876.53;5034044;28;20029;-72
2022/08/10 06:45:53;;;;;;;2.38;1.90;;;;;;;22.62;54.69;101866.88;5035212;28;20019;-71
2022/08/10 06:48:28;;;;;;;3.65;2.25;;;;;;;22.96;53.74;101876.00;5033548;28;20376;-72
2022/08/10 06:50:59;;;;;;;2.50;2.00;;;;;;;23.41;52.35;101869.22;5033704;28;20543;-72
2022/08/10 06:53:31;;;;;;;3.00;2.00;;;;;;;23.56;52.11;101869.28;5034444;28;20036;-72
2022/08/10 06:56:17;;;;;;;2.60;2.17;;;;;;;23.76;51.22;101876.31;5034099;28;20091;-72
2022/08/10 06:58:51;;;;;;;2.72;1.75;;;;;;;23.89;50.87;101867.59;5035069;28;20025;-72
2022/08/10 07:01:21;;;;;;;2.75;1.80;;;;;;;23.80;50.90;101867.16;5033852;28;20027;-73
2022/08/10 07:04:01;;;;;;;2.83;1.98;;;;;;;23.38;50.32;101878.31;5035111;28;20108;-72
2022/08/10 07:06:28;;;;;;;3.53;1.70;;;;;;;23.45;51.05;101876.16;5034910;28;20021;-72
2022/08/10 07:08:55;;;;;;;3.10;1.80;;;;;;;23.66;50.24;101871.50;5033406;28;20034;-73
2022/08/10 07:11:22;;;;;;;2.35;1.70;;;;;;;23.72;50.28;101877.44;5034807;28;20060;-73
2022/08/10 07:13:49;;;;;;;2.15;1.65;;;;;;;24.13;49.21;101877.00;5034754;28;20026;-72
2022/08/10 07:16:16;;;;;;;4.47;1.75;;;;;;;24.44;48.42;101878.88;5033305;28;20036;-72
2022/08/10 07:18:43;;;;;;;2.30;1.90;;;;;;;24.67;47.58;101871.34;5033308;28;20033;-72
2022/08/10 07:21:11;;;;;;;3.53;1.60;;;;;;;24.85;46.61;101874.78;5033585;28;20025;-73
2022/08/10 07:23:38;;;;;;;2.50;1.85;;;;;;;24.88;46.18;101883.53;5034410;28;20025;-72
2022/08/10 07:26:06;;;;;;;1.83;1.52;;;;;;;24.83;46.26;101875.75;5033130;28;20022;-74
2022/08/10 07:28:32;;;;;;;2.97;1.65;;;;;;;24.63;45.35;101885.91;5033131;28;20025;-73
2022/08/10 07:31:01;;;;;;;2.33;1.60;;;;;;;24.79;45.53;101879.56;5049700;28;20032;-74
2022/08/10 07:33:27;;;;;;;1.90;1.63;;;;;;;25.04;45.09;101889.75;5034329;28;20413;-73
2022/08/10 07:35:54;;;;;;;3.08;2.20;;;;;;;24.46;45.52;101892.25;5033223;28;20057;-73
2022/08/10 07:38:29;;;;;;;2.65;1.77;;;;;;;24.80;44.25;101886.66;5034459;28;20433;-73
2022/08/10 07:40:59;;;;;;;1.70;1.38;;;;;;;25.03;44.31;101892.53;5032908;28;20033;-73
2022/08/10 07:43:26;;;;;;;1.98;1.45;;;;;;;25.10;43.44;101893.09;5033160;28;20083;-73
2022/08/10 07:45:52;;;;;;;1.70;1.30;;;;;;;25.02;43.90;101888.13;5033086;28;20018;-72
2022/08/10 07:48:31;;;;;;;2.40;1.70;;;;;;;25.06;42.08;101887.84;5033107;28;20033;-74
2022/08/10 07:51:00;;;;;;;2.00;1.27;;;;;;;25.35;42.98;101889.81;5034165;28;20032;-74
2022/08/10 07:53:31;;;;;;;2.65;1.70;;;;;;;24.61;43.57;101891.34;5033906;28;20026;-75
2022/08/10 07:55:58;;;;;;;7.53;1.55;;;;;;;25.07;42.79;101894.09;5032451;28;20060;-75
2022/08/10 07:58:34;;;;;;;10.55;1.90;;;;;;;24.86;42.16;101890.84;5032755;28;20025;-74
2022/08/10 08:01:00;;;;;;;2.80;1.50;;;;;;;24.64;42.88;101888.50;5034007;28;20036;-72
2022/08/10 08:03:28;;;;;;;2.70;1.48;;;;;;;25.08;42.30;101891.31;5033913;28;20353;-74
2022/08/10 08:05:58;;;;;;;2.83;1.63;;;;;;;25.16;41.70;101882.81;5032579;28;20028;-72
2022/08/10 08:08:31;;;;;;;2.42;1.40;;;;;;;24.39;42.04;101880.09;5032477;28;20033;-73
2022/08/10 08:11:01;;;;;;;2.40;1.67;;;;;;;24.70;42.81;101890.84;5032493;28;20424;-73
2022/08/10 08:13:28;;;;;;;1.80;1.35;;;;;;;24.60;43.42;101878.03;5032576;28;20029;-73
2022/08/10 08:15:56;;;;;;;1.60;1.30;;;;;;;25.01;42.72;101873.78;5033669;28;20036;-73
2022/08/10 08:18:23;;;;;;;1.80;1.33;;;;;;;25.29;42.22;101873.09;5033720;28;20040;-72
2022/08/10 08:20:49;;;;;;;1.67;1.25;;;;;;;25.40;41.91;101871.56;5032277;28;20091;-74
2022/08/10 08:23:16;;;;;;;1.90;1.52;;;;;;;25.68;41.35;101870.72;5033519;28;20032;-72
2022/08/10 08:25:44;;;;;;;2.90;1.65;;;;;;;25.88;41.19;101866.84;5033652;28;20097;-73
2022/08/10 08:28:11;;;;;;;1.95;1.15;;;;;;;26.13;40.79;101868.84;5033721;28;20406;-73
2022/08/10 08:30:38;;;;;;;2.72;1.50;;;;;;;26.26;40.77;101864.41;5015832;28;20366;-73
2022/08/10 08:33:05;;;;;;;2.90;1.58;;;;;;;26.51;40.37;101863.72;5032185;28;20025;-73
2022/08/10 08:35:32;;;;;;;2.42;1.60;;;;;;;26.78;39.69;101861.88;5033373;28;20119;-73
2022/08/10 08:37:59;;;;;;;2.17;1.45;;;;;;;26.94;39.46;101861.72;5032245;28;20473;-72
2022/08/10 08:40:32;;;;;;;2.78;1.40;;;;;;;27.07;38.72;101863.59;5032067;28;20052;-72
2022/08/10 08:43:16;;;;;;;;;;;;;;;26.86;35.78;101860.53;5032578;28;20032;-73
2022/08/10 08:45:44;;;;;;;1.75;0.98;;;;;;;27.03;38.66;101857.53;5032384;28;19909;-72
2022/08/10 08:48:19;;;;;;;4.47;1.33;;;;;;;26.88;37.32;101853.19;5032065;28;20347;-73
2022/08/10 08:51:02;;;;;;;1.60;1.00;;;;;;;26.90;37.25;101849.41;5033462;28;20146;-72
2022/08/10 08:53:42;;;;;;;2.85;1.23;;;;;;;26.77;37.07;101852.09;5033491;28;20036;-72
2022/08/10 08:56:41;;;;;;;2.08;1.20;;;;;;;26.78;36.83;101850.25;5033244;28;20103;-72
2022/08/10 08:59:25;;;;;;;2.33;1.80;;;;;;;26.73;37.33;101857.75;5032149;28;20022;-73
2022/08/10 09:02:26;;;;;;;2.15;1.23;;;;;;;26.96;37.30;101853.53;5032093;28;20033;-73
2022/08/10 09:05:08;;;;;;;3.35;1.15;;;;;;;27.10;36.91;101849.91;5030087;28;20041;-73
2022/08/10 09:08:04;;;;;;;2.28;1.40;;;;;;;26.22;39.81;101852.97;5034871;28;20420;-73
2022/08/10 09:10:36;;;;;;;3.72;1.65;;;;;;;25.12;42.31;101861.56;5035736;28;20060;-74
2022/08/10 09:13:25;;;;;;;2.07;1.87;;;;;;;25.01;42.81;101857.66;5037293;28;20037;-75
2022/08/10 09:16:28;;;;;;;7.43;2.10;;;;;;;24.39;44.31;101859.47;5037071;28;20056;-74
2022/08/10 09:19:16;;;;;;;3.30;1.58;;;;;;;23.96;44.64;101861.81;5036939;28;20104;-74
2022/08/10 09:21:53;;;;;;;2.35;1.38;;;;;;;23.81;44.96;101855.47;5037072;28;20052;-75
2022/08/10 09:24:44;;;;;;;2.08;1.42;;;;;;;24.24;43.96;101845.06;5036918;28;20037;-75
2022/08/10 09:27:38;;;;;;;7.28;1.58;;;;;;;24.25;42.45;101837.84;5032470;28;20581;-75
2022/08/10 09:30:06;;;;;;;1.33;1.05;;;;;;;24.65;42.36;101841.84;5034347;28;20038;-75
2022/08/10 09:32:52;;;;;;;2.78;1.13;;;;;;;25.33;39.31;101841.44;5036870;28;20060;-75
2022/08/10 09:35:26;;;;;;;1.70;0.98;;;;;;;25.77;38.82;101841.47;5036987;28;20025;-75
2022/08/10 09:38:23;;;;;;;1.98;1.10;;;;;;;25.66;40.09;101843.06;5035315;28;20033;-74
2022/08/10 09:41:25;;;;;;;2.58;1.52;;;;;;;24.97;42.80;101844.50;5036642;28;20034;-75
2022/08/10 09:44:07;;;;;;;2.03;1.30;;;;;;;24.07;44.78;101854.06;5036597;28;20104;-75
2022/08/10 09:46:39;;;;;;;1.58;1.40;;;;;;;24.19;45.08;101852.50;5035200;28;20481;-74
2022/08/10 09:49:37;;;;;;;2.13;1.48;;;;;;;24.44;44.39;101856.53;5036507;28;20034;-74
2022/08/10 09:52:19;;;;;;;2.05;1.33;;;;;;;24.49;44.21;101849.94;5036385;28;20029;-75
2022/08/10 09:55:08;;;;;;;1.80;1.20;;;;;;;24.99;43.31;101845.28;5036256;28;20109;-74
2022/08/10 09:57:46;;;;;;;1.83;1.30;;;;;;;25.67;41.99;101840.25;5036225;28;20029;-73
2022/08/10 10:00:15;;;;;;;2.90;1.20;;;;;;;26.21;40.86;101834.19;5034966;28;20036;-74
2022/08/10 10:03:15;;;;;;;1.42;1.00;;;;;;;26.77;39.62;101827.81;5034781;28;20420;-74
2022/08/10 10:06:04;;;;;;;2.45;1.30;;;;;;;27.08;39.06;101832.94;5032032;28;20073;-74
2022/08/10 10:08:49;;;;;;;2.17;1.30;;;;;;;27.19;38.82;101828.56;5036123;28;20031;-74
2022/08/10 10:11:34;;;;;;;3.13;1.40;;;;;;;26.90;38.36;101827.84;5034690;28;20108;-75
2022/08/10 10:14:11;;;;;;;1.70;1.23;;;;;;;25.64;40.43;101829.69;5035981;28;20030;-74
2022/08/10 10:16:48;;;;;;;3.25;1.05;;;;;;;25.66;40.93;101821.53;5034541;28;20100;-73
2022/08/10 10:19:47;;;;;;;1.85;1.20;;;;;;;25.41;40.22;101822.16;5035865;28;20112;-73
2022/08/10 10:22:57;;;;;;;1.88;1.38;;;;;;;26.10;39.68;101816.03;5035770;28;20119;-73
2022/08/10 10:26:02;;;;;;;2.42;1.20;;;;;;;26.21;38.57;101808.13;5034957;28;20132;-73
2022/08/10 10:29:06;;;;;;;4.20;1.13;;;;;;;26.40;38.74;101805.09;5026209;28;20124;-74
2022/08/10 10:35:11;;;;;;;2.28;1.30;;;;;;;26.21;38.99;101800.06;5035389;28;20072;-74
2022/08/10 10:37:37;;;;;;;1.60;1.00;;;;;;;26.53;38.58;101795.28;5035528;28;20389;-73
2022/08/10 10:40:04;;;;;;;1.40;0.95;;;;;;;26.35;38.18;101803.66;5033816;28;20050;-73
2022/08/10 10:43:06;;;;;;;1.60;0.82;;;;;;;26.18;38.11;101792.16;5034332;28;20033;-74
2022/08/10 10:46:00;;;;;;;2.15;0.77;;;;;;;25.95;38.25;101800.88;5035497;28;20021;-74
2022/08/10 10:48:40;;;;;;;1.25;0.82;;;;;;;25.93;38.63;101797.38;5035460;28;20036;-75
2022/08/10 10:51:27;;;;;;;1.65;0.98;;;;;;;25.88;38.44;101792.31;5035283;28;20029;-74
2022/08/10 10:54:09;;;;;;;3.30;1.00;;;;;;;25.95;39.58;101796.34;5035274;28;20108;-66
2022/08/10 10:56:53;;;;;;;2.58;0.93;;;;;;;26.43;38.71;101790.56;5035203;28;20087;-77
2022/08/10 10:59:45;;;;;;;4.38;1.20;;;;;;;26.96;39.12;101789.66;5033845;28;20029;-77
2022/08/10 11:02:43;;;;;;;1.50;1.00;;;;;;;27.34;36.58;101786.19;5035283;28;20029;-77
2022/08/10 11:05:21;;;;;;;2.13;1.00;;;;;;;27.74;37.29;101784.25;5035209;28;20037;-77
2022/08/10 11:07:50;;;;;;;1.30;0.80;;;;;;;28.16;36.62;101787.47;5033881;28;20489;-77
2022/08/10 11:10:21;;;;;;;2.03;0.82;;;;;;;28.60;35.67;101790.56;5034951;28;20037;-77
2022/08/10 11:13:11;;;;;;;2.03;1.00;;;;;;;27.84;34.57;101791.66;5033930;28;20029;-77
2022/08/10 11:15:50;;;;;;;1.20;1.00;;;;;;;27.26;36.04;101794.81;5034700;28;20473;-78
2022/08/10 11:18:54;;;;;;;3.50;1.20;;;;;;;27.03;36.04;101796.38;5034957;28;20029;-79
2022/08/10 11:22:04;;;;;;;2.08;0.93;;;;;;;27.02;37.18;101789.25;5035012;28;20021;-79
2022/08/10 11:24:48;;;;;;;1.33;0.70;;;;;;;27.12;37.69;101788.63;5030962;28;20030;-79
2022/08/10 11:27:28;;;;;;;1.80;0.90;;;;;;;27.11;36.63;101793.16;5034909;28;20013;-79
2022/08/10 11:30:02;;;;;;;1.20;0.90;;;;;;;27.21;36.52;101788.88;5034245;28;20032;-79
2022/08/10 11:33:05;;;;;;;2.03;1.10;;;;;;;27.64;36.08;101782.28;5034455;28;20377;-79
2022/08/10 11:35:49;;;;;;;1.75;1.02;;;;;;;28.12;37.60;101780.56;5033237;28;20048;-76
2022/08/10 11:38:34;;;;;;;2.00;1.00;;;;;;;28.47;37.63;101783.38;5034573;28;20477;-77
2022/08/10 11:41:19;;;;;;;1.88;1.23;;;;;;;28.77;35.58;101792.03;5034474;28;20041;-78
2022/08/10 11:43:54;;;;;;;2.00;1.10;;;;;;;28.80;35.93;101789.06;5033276;28;20021;-77
2022/08/10 11:46:45;;;;;;;2.65;0.80;;;;;;;28.28;34.92;101792.94;5034420;28;20017;-76
2022/08/10 11:49:33;;;;;;;2.20;0.80;;;;;;;28.04;36.09;101792.91;5034114;28;20068;-77
2022/08/10 11:52:05;;;;;;;1.20;0.77;;;;;;;27.83;35.25;101789.94;5029334;28;20060;-78
2022/08/10 11:54:43;;;;;;;2.40;0.80;;;;;;;27.71;34.96;101792.53;5033038;28;20028;-78
2022/08/10 11:57:11;;;;;;;1.20;0.63;;;;;;;27.98;34.96;101783.44;5033987;28;20083;-78
2022/08/10 11:59:56;;;;;;;1.15;0.80;;;;;;;28.41;35.83;101781.16;5034221;28;20036;-77